Time;durP1;ratioP1;P1;durP2;ratioP2;P2;SDS_P1;SDS_P2;PMS_P1;PMS_P2;Temp;Humidity;BMP_temperature;BMP_pressure;BME280_temperature;BME280_humidity;BME280_pressure;Samples;Min_cycle;Max_cycle;Signal;HPM_P1;HPM_P2
2022/04/12 00:01:13;;;;;;;10.57;6.43;;;;;;;5.98;65.52;101006.53;6073086;23;20027;-75
2022/04/12 00:03:38;;;;;;;11.82;5.10;;;;;;;5.61;65.99;100965.50;6082103;23;20088;-74
2022/04/12 00:06:05;;;;;;;13.10;6.07;;;;;;;5.61;64.92;100960.31;6056212;23;20010;-74
2022/04/12 00:08:31;;;;;;;13.73;7.05;;;;;;;6.06;64.66;101006.75;6057989;23;20033;-74
2022/04/12 00:10:57;;;;;;;10.25;5.82;;;;;;;6.21;64.34;100999.34;6081626;23;20018;-75
2022/04/12 00:13:23;;;;;;;10.10;4.97;;;;;;;6.29;62.75;100990.00;6081347;23;20080;-74
2022/04/12 00:15:49;;;;;;;10.77;6.80;;;;;;;6.05;65.01;100989.34;6081083;23;20035;-74
2022/04/12 00:21:07;;;;;;;12.25;7.63;;;;;;;5.96;62.08;100994.31;6075707;23;20092;-74
2022/04/12 00:23:33;;;;;;;15.73;6.57;;;;;;;5.98;62.96;100993.50;6056017;23;20022;-74
2022/04/12 00:25:58;;;;;;;10.43;5.90;;;;;;;5.79;63.63;100972.97;6082376;23;20032;-74
2022/04/12 00:28:24;;;;;;;14.48;7.22;;;;;;;6.05;58.09;100961.56;6081873;23;20026;-74
2022/04/12 00:30:50;;;;;;;13.60;8.02;;;;;;;6.03;57.72;100968.47;6081667;23;20018;-73
2022/04/12 00:33:15;;;;;;;9.15;5.57;;;;;;;6.00;57.62;100957.09;6081678;23;20014;-76
2022/04/12 00:35:42;;;;;;;9.32;6.53;;;;;;;6.29;59.38;100987.41;6081766;23;20011;-74
2022/04/12 00:38:17;;;;;;;14.70;7.22;;;;;;;6.10;61.27;100993.84;6055673;23;20033;-74
2022/04/12 00:40:45;;;;;;;9.30;6.47;;;;;;;6.20;57.73;100987.16;6056245;23;20068;-75
2022/04/12 00:43:11;;;;;;;12.20;5.45;;;;;;;6.09;58.29;100989.50;6081807;23;20515;-74
2022/04/12 00:45:36;;;;;;;8.30;4.78;;;;;;;6.00;58.80;100997.03;6079671;23;20015;-73
2022/04/12 00:48:02;;;;;;;8.50;5.03;;;;;;;6.24;58.90;100990.75;6054233;23;20013;-74
2022/04/12 00:50:28;;;;;;;8.65;5.88;;;;;;;6.25;58.02;100988.19;6032523;23;20007;-74
2022/04/12 00:52:56;;;;;;;8.93;5.60;;;;;;;6.20;59.95;100968.03;6055086;23;20075;-74
2022/04/12 00:55:29;;;;;;;15.53;7.23;;;;;;;6.11;60.56;100992.13;6082402;23;20446;-74
2022/04/12 00:57:54;;;;;;;11.70;5.93;;;;;;;6.14;59.14;100987.00;6067722;23;20022;-74
2022/04/12 01:00:20;;;;;;;10.50;6.30;;;;;;;6.20;59.39;100996.69;6052942;23;20022;-74
2022/04/12 01:02:46;;;;;;;16.70;6.30;;;;;;;6.15;58.23;100983.56;6056989;23;20015;-74
2022/04/12 01:05:12;;;;;;;10.45;6.55;;;;;;;6.18;58.00;100972.31;6056819;23;20077;-75
2022/04/12 01:07:38;;;;;;;8.40;5.88;;;;;;;6.20;56.90;100953.28;6080185;23;20148;-76
2022/04/12 01:10:05;;;;;;;10.82;6.15;;;;;;;6.16;58.00;100963.56;6082251;23;20022;-75
2022/04/12 01:12:38;;;;;;;13.18;8.02;;;;;;;6.11;56.74;100964.38;6080706;23;20026;-77
2022/04/12 01:15:16;;;;;;;7.63;5.13;;;;;;;6.38;56.85;100996.31;6057276;23;20006;-74
2022/04/12 01:17:44;;;;;;;15.90;7.78;;;;;;;6.23;57.04;100973.34;6082180;23;20048;-76
2022/04/12 01:20:11;;;;;;;9.57;6.40;;;;;;;6.02;57.72;100955.41;6081563;23;20022;-75
2022/04/12 01:23:04;;;;;;;8.68;6.57;;;;;;;6.14;59.77;100934.91;6081381;23;20023;-74
2022/04/12 01:25:30;;;;;;;9.93;5.72;;;;;;;5.85;61.98;100971.44;6034038;23;20025;-74
2022/04/12 01:27:56;;;;;;;9.40;5.95;;;;;;;5.68;59.87;100941.41;6055506;23;20022;-75
2022/04/12 01:30:21;;;;;;;7.93;4.97;;;;;;;5.91;61.95;100961.16;6081132;23;20017;-74
2022/04/12 01:32:46;;;;;;;21.88;10.13;;;;;;;5.90;62.34;100979.38;6055916;23;20011;-73
2022/04/12 01:35:12;;;;;;;11.35;7.70;;;;;;;5.62;62.90;100956.84;6081528;23;20057;-73
2022/04/12 01:37:38;;;;;;;13.32;7.97;;;;;;;5.79;62.26;100962.56;6033632;23;20053;-74
2022/04/12 01:40:04;;;;;;;13.32;5.60;;;;;;;5.98;61.90;100995.25;6081971;23;20023;-74
2022/04/12 01:42:31;;;;;;;17.27;10.77;;;;;;;5.80;59.35;100965.19;6082445;23;20106;-76
2022/04/12 01:44:56;;;;;;;19.35;10.75;;;;;;;5.68;61.29;100951.81;6082012;23;20091;-74
2022/04/12 01:47:22;;;;;;;14.43;7.90;;;;;;;5.72;61.92;100964.09;6084706;23;20007;-74
2022/04/12 01:49:47;;;;;;;17.67;9.57;;;;;;;5.95;60.70;100984.72;6044032;23;20829;-74
2022/04/12 01:52:15;;;;;;;15.43;9.15;;;;;;;5.58;61.82;100960.22;6079238;23;20030;-74
2022/04/12 01:54:41;;;;;;;11.82;7.50;;;;;;;5.34;64.55;100934.34;6081717;23;20042;-73
2022/04/12 01:57:06;;;;;;;16.65;9.10;;;;;;;5.83;60.37;100985.22;6056280;23;20067;-76
2022/04/12 01:59:32;;;;;;;16.23;10.35;;;;;;;5.51;62.64;100946.13;6056072;23;20073;-76
2022/04/12 02:01:58;;;;;;;12.25;6.85;;;;;;;5.20;63.23;100947.84;6039886;23;20378;-74
2022/04/12 02:04:24;;;;;;;12.80;7.18;;;;;;;5.58;63.13;100988.84;6078151;23;20034;-74
2022/04/12 02:06:49;;;;;;;14.10;8.65;;;;;;;5.43;64.35;100991.88;6082476;23;20398;-74
2022/04/12 02:09:15;;;;;;;23.50;9.27;;;;;;;5.32;63.99;100959.47;6055846;23;20721;-74
2022/04/12 02:11:40;;;;;;;18.23;10.43;;;;;;;5.55;62.75;100994.84;6057190;23;20033;-74
2022/04/12 02:14:07;;;;;;;18.27;9.50;;;;;;;5.47;64.31;100983.31;6080728;23;20741;-73
2022/04/12 02:16:34;;;;;;;15.88;9.38;;;;;;;5.48;64.22;100982.50;6058530;23;20023;-74
2022/04/12 02:18:59;;;;;;;12.60;8.90;;;;;;;4.99;65.29;100958.47;6082175;23;20022;-74
2022/04/12 02:21:25;;;;;;;19.05;9.65;;;;;;;5.22;63.55;100992.09;6082915;23;20018;-74
2022/04/12 02:23:50;;;;;;;11.57;8.15;;;;;;;5.03;64.26;100959.41;6082463;23;20010;-74
2022/04/12 02:26:16;;;;;;;19.88;10.90;;;;;;;4.97;64.35;100952.31;6057407;23;20023;-74
2022/04/12 02:28:41;;;;;;;19.67;10.60;;;;;;;5.05;65.20;100996.78;6059056;23;20726;-73
2022/04/12 02:31:07;;;;;;;13.77;10.20;;;;;;;5.00;64.04;100983.63;6082785;23;20117;-73
2022/04/12 02:33:33;;;;;;;25.13;12.40;;;;;;;4.67;66.45;100952.22;6082409;23;20033;-73
2022/04/12 02:35:58;;;;;;;23.17;12.18;;;;;;;4.77;66.80;100949.06;6081892;23;20776;-73
2022/04/12 02:38:24;;;;;;;18.35;11.15;;;;;;;4.85;65.34;100978.81;6083202;23;20014;-73
2022/04/12 02:40:52;;;;;;;17.58;8.73;;;;;;;4.98;65.28;100987.88;6080116;23;20396;-74
2022/04/12 02:43:18;;;;;;;15.73;8.02;;;;;;;4.90;65.40;100991.97;6080599;23;20322;-75
2022/04/12 02:45:43;;;;;;;19.23;8.68;;;;;;;4.61;66.26;100991.00;6079784;23;20446;-73
2022/04/12 02:48:10;;;;;;;14.73;9.80;;;;;;;4.52;65.71;100988.09;6080178;23;20406;-73
2022/04/12 02:50:36;;;;;;;14.13;9.90;;;;;;;4.56;66.79;100993.44;6080668;23;20006;-73
2022/04/12 02:53:01;;;;;;;18.95;10.40;;;;;;;4.54;66.88;100991.63;6079775;23;20034;-74
2022/04/12 02:55:27;;;;;;;17.00;9.75;;;;;;;4.43;67.92;100986.09;6079460;23;20033;-74
2022/04/12 02:57:52;;;;;;;15.85;9.45;;;;;;;4.52;66.69;100988.09;6079583;23;20022;-74
2022/04/12 03:00:18;;;;;;;16.45;8.65;;;;;;;4.58;66.24;100993.50;6077420;23;20064;-76
2022/04/12 03:02:43;;;;;;;11.45;8.90;;;;;;;4.32;67.16;100992.63;6054827;23;20338;-74
2022/04/12 03:05:10;;;;;;;14.50;9.57;;;;;;;4.30;69.12;100987.34;6079684;23;20106;-74
2022/04/12 03:07:35;;;;;;;14.10;10.73;;;;;;;4.25;69.06;100994.13;6079502;23;20029;-74
2022/04/12 03:10:01;;;;;;;14.70;9.82;;;;;;;4.49;68.22;100995.78;6079694;23;20023;-73
2022/04/12 03:12:26;;;;;;;15.45;11.73;;;;;;;4.30;67.69;100984.75;6078896;23;20033;-74
2022/04/12 03:14:52;;;;;;;15.15;11.95;;;;;;;4.18;68.66;100989.53;6079543;23;20010;-74
2022/04/12 03:17:17;;;;;;;21.10;12.32;;;;;;;4.22;70.05;100991.41;6080602;23;20006;-73
2022/04/12 03:19:43;;;;;;;21.02;10.23;;;;;;;4.25;69.48;100991.53;6079818;23;20022;-73
2022/04/12 03:22:08;;;;;;;19.33;9.88;;;;;;;4.28;69.25;100996.81;6079943;23;20426;-74
2022/04/12 03:24:34;;;;;;;18.80;10.13;;;;;;;4.25;69.51;100998.44;6053895;23;20343;-74
2022/04/12 03:26:59;;;;;;;19.27;10.55;;;;;;;4.18;69.72;100993.00;6079194;23;20013;-74
2022/04/12 03:29:27;;;;;;;18.85;9.90;;;;;;;4.02;70.75;100994.16;6080638;23;20697;-74
2022/04/12 03:31:53;;;;;;;21.45;11.20;;;;;;;4.22;69.54;101007.00;6079233;23;20025;-74
2022/04/12 03:34:19;;;;;;;15.88;10.63;;;;;;;4.28;69.86;101007.19;6079053;23;20022;-73
2022/04/12 03:36:46;;;;;;;12.15;7.05;;;;;;;4.39;69.51;101007.59;6079647;23;20396;-73
2022/04/12 03:39:17;;;;;;;24.00;11.98;;;;;;;4.30;68.88;101010.75;6052040;23;20027;-73
2022/04/12 03:41:44;;;;;;;37.60;11.80;;;;;;;4.25;70.06;100996.72;6079822;23;20014;-74
2022/04/12 03:44:10;;;;;;;25.25;8.60;;;;;;;4.08;70.83;101011.72;6078734;23;20556;-74
2022/04/12 03:46:35;;;;;;;16.20;11.57;;;;;;;4.12;70.95;101007.50;6079695;23;20522;-73
2022/04/12 03:49:01;;;;;;;15.70;10.85;;;;;;;4.02;68.83;101012.34;6079077;23;20502;-74
2022/04/12 03:51:26;;;;;;;15.32;9.73;;;;;;;4.20;69.49;101006.06;6077621;23;20020;-74
2022/04/12 03:53:52;;;;;;;15.45;9.63;;;;;;;4.05;68.71;101022.00;6053543;23;20049;-74
2022/04/12 03:56:17;;;;;;;16.27;10.45;;;;;;;3.92;71.04;101019.78;6079504;23;20049;-73
2022/04/12 03:58:43;;;;;;;15.50;11.10;;;;;;;4.19;69.09;101025.97;6053691;23;20136;-74
2022/04/12 04:01:08;;;;;;;15.20;10.93;;;;;;;4.01;67.46;101013.19;6075459;23;20018;-74
2022/04/12 04:03:35;;;;;;;27.10;11.02;;;;;;;4.30;70.12;101023.72;6053917;23;20406;-74
2022/04/12 04:06:01;;;;;;;23.63;12.50;;;;;;;4.38;69.89;101026.63;6076907;23;20439;-77
2022/04/12 04:08:26;;;;;;;16.67;7.82;;;;;;;4.26;69.29;101021.88;6078543;23;20093;-74
2022/04/12 04:10:52;;;;;;;13.55;8.50;;;;;;;4.35;69.45;101022.16;6053115;23;20042;-75
2022/04/12 04:13:17;;;;;;;14.85;10.05;;;;;;;4.41;68.09;101022.41;6079219;23;20046;-74
2022/04/12 04:15:45;;;;;;;19.70;10.70;;;;;;;4.22;68.99;101033.84;6079127;23;20023;-75
2022/04/12 04:18:11;;;;;;;12.63;8.90;;;;;;;4.07;69.88;101025.50;6079312;23;20034;-74
2022/04/12 04:20:37;;;;;;;13.18;8.57;;;;;;;4.00;68.81;101029.63;6079406;23;20109;-75
2022/04/12 04:23:03;;;;;;;17.73;11.75;;;;;;;4.07;68.05;101032.41;6071329;23;20019;-77
2022/04/12 04:25:29;;;;;;;24.40;13.10;;;;;;;4.22;68.70;101026.06;6048746;23;20354;-75
2022/04/12 04:27:55;;;;;;;25.35;13.02;;;;;;;4.33;68.98;101044.66;6079036;23;20025;-73
2022/04/12 04:30:21;;;;;;;17.95;11.13;;;;;;;4.59;67.69;101035.16;6078999;23;20018;-75
2022/04/12 04:32:48;;;;;;;18.33;10.20;;;;;;;4.53;68.16;101050.53;6079422;23;20744;-74
2022/04/12 04:35:14;;;;;;;13.90;9.45;;;;;;;4.47;66.78;101036.41;6078692;23;20121;-73
2022/04/12 04:37:47;;;;;;;19.20;10.98;;;;;;;4.56;68.01;101036.75;6079744;23;20026;-76
2022/04/12 04:40:18;;;;;;;17.30;10.52;;;;;;;4.68;67.42;101044.94;6078140;23;20438;-75
2022/04/12 04:42:53;;;;;;;20.83;9.98;;;;;;;4.86;66.44;101042.97;6053362;23;20549;-73
2022/04/12 04:45:19;;;;;;;17.85;12.10;;;;;;;4.90;66.19;101041.38;6077925;23;20042;-73
2022/04/12 04:47:52;;;;;;;15.43;8.57;;;;;;;4.88;60.85;101053.44;6079141;23;20315;-77
2022/04/12 04:50:20;;;;;;;14.25;9.35;;;;;;;5.10;62.40;101056.75;6076576;23;20065;-74
2022/04/12 04:52:45;;;;;;;11.40;8.52;;;;;;;5.26;59.61;101056.41;6078656;23;20033;-74
2022/04/12 04:55:11;;;;;;;13.50;8.55;;;;;;;5.35;59.71;101063.63;6078062;23;20018;-75
2022/04/12 04:57:46;;;;;;;14.73;9.07;;;;;;;5.41;59.18;101062.09;6078149;23;20105;-77
2022/04/12 05:00:17;;;;;;;13.00;8.38;;;;;;;5.59;58.92;101056.56;6051417;23;20022;-77
2022/04/12 05:02:50;;;;;;;12.77;8.10;;;;;;;5.78;58.79;101064.94;6079566;23;20007;-75
2022/04/12 05:05:17;;;;;;;10.45;7.85;;;;;;;5.83;59.54;101064.25;6077803;23;20077;-75
2022/04/12 05:07:46;;;;;;;10.38;7.53;;;;;;;6.05;57.52;101072.72;6078276;23;20057;-75
2022/04/12 05:10:19;;;;;;;12.15;8.32;;;;;;;6.03;57.66;101061.38;6024300;23;20030;-74
2022/04/12 05:12:44;;;;;;;13.30;8.55;;;;;;;6.46;56.75;101070.38;6077627;23;20397;-76
2022/04/12 05:15:11;;;;;;;19.13;7.72;;;;;;;6.50;58.02;101054.00;6077839;23;20002;-75
2022/04/12 05:17:36;;;;;;;12.02;7.82;;;;;;;7.05;55.23;101078.03;6078667;23;20137;-75
2022/04/12 05:20:05;;;;;;;12.77;7.97;;;;;;;7.28;53.29;101076.88;6077801;23;20109;-74
2022/04/12 05:22:31;;;;;;;12.23;9.55;;;;;;;7.80;53.45;101069.34;6077099;23;20026;-77
2022/04/12 05:25:05;;;;;;;9.68;6.85;;;;;;;8.42;54.35;101072.38;6078173;23;20026;-75
2022/04/12 05:27:31;;;;;;;12.35;7.78;;;;;;;8.83;52.46;101072.28;6077879;23;20350;-74
2022/04/12 05:29:58;;;;;;;16.80;8.30;;;;;;;9.42;50.81;101061.03;6077987;23;20017;-78
2022/04/12 05:32:24;;;;;;;13.45;9.57;;;;;;;9.72;49.77;101067.56;6078594;23;20028;-75
2022/04/12 05:34:49;;;;;;;11.02;7.38;;;;;;;10.02;48.93;101067.13;6076918;23;20022;-74
2022/04/12 05:37:15;;;;;;;13.43;8.18;;;;;;;10.07;49.15;101070.66;6077896;23;20019;-75
2022/04/12 05:39:40;;;;;;;8.95;6.57;;;;;;;10.06;48.52;101082.00;6077759;23;20670;-74
2022/04/12 05:42:13;;;;;;;14.55;8.50;;;;;;;10.29;48.81;101073.59;6078101;23;20011;-74
2022/04/12 05:44:46;;;;;;;10.63;6.72;;;;;;;10.37;46.31;101081.53;6230981;23;20293;-74
2022/04/12 05:47:12;;;;;;;13.13;7.15;;;;;;;10.63;47.77;101074.84;6230291;23;20024;-75
2022/04/12 05:49:38;;;;;;;10.77;7.57;;;;;;;10.30;46.31;101077.94;6230619;23;20030;-73
2022/04/12 05:52:04;;;;;;;9.85;6.72;;;;;;;11.02;46.18;101069.94;6231091;23;20016;-73
2022/04/12 05:54:30;;;;;;;15.55;5.63;;;;;;;10.74;44.94;101088.06;6229486;23;20440;-73
2022/04/12 05:56:55;;;;;;;15.30;6.70;;;;;;;10.89;46.89;101082.97;6231162;23;20433;-73
2022/04/12 05:59:22;;;;;;;8.52;5.93;;;;;;;10.92;43.86;101074.25;6231424;23;20031;-74
2022/04/12 06:01:48;;;;;;;13.07;6.25;;;;;;;11.04;46.09;101076.09;6227597;23;20016;-74
2022/04/12 06:04:14;;;;;;;11.23;6.47;;;;;;;11.15;44.04;101091.09;6230875;23;20016;-76
2022/04/12 06:06:41;;;;;;;12.27;7.22;;;;;;;11.38;44.61;101077.25;6202993;23;20467;-74
2022/04/12 06:09:07;;;;;;;6.88;4.65;;;;;;;10.69;42.72;101074.88;6230576;23;20008;-74
2022/04/12 06:11:33;;;;;;;11.88;5.50;;;;;;;10.96;42.28;101079.53;6203882;23;20379;-75
2022/04/12 06:13:58;;;;;;;11.40;5.10;;;;;;;11.67;41.20;101084.47;6230608;23;20409;-74
2022/04/12 06:16:24;;;;;;;18.50;3.88;;;;;;;11.20;39.90;101070.09;6230982;23;20016;-74
2022/04/12 06:18:49;;;;;;;6.32;3.90;;;;;;;11.12;39.38;101087.53;6230883;23;20105;-74
2022/04/12 06:21:15;;;;;;;14.82;4.82;;;;;;;11.77;38.59;101075.75;6231099;23;20506;-74
2022/04/12 06:23:40;;;;;;;10.35;5.10;;;;;;;11.66;39.60;101086.22;6231987;23;20425;-73
2022/04/12 06:26:05;;;;;;;8.45;3.90;;;;;;;10.72;39.93;101087.16;6226082;23;20035;-74
2022/04/12 06:28:32;;;;;;;4.97;3.55;;;;;;;11.34;41.08;101085.97;6230353;23;20024;-76
2022/04/12 06:31:00;;;;;;;8.93;4.03;;;;;;;11.65;38.72;101079.19;6230235;23;20027;-75
2022/04/12 06:33:27;;;;;;;9.52;5.65;;;;;;;11.35;39.62;101080.72;6204598;23;20016;-74
2022/04/12 06:35:52;;;;;;;6.32;3.58;;;;;;;11.14;38.85;101083.19;6230879;23;20019;-75
2022/04/12 06:38:21;;;;;;;4.82;3.33;;;;;;;11.15;41.22;101082.31;6232847;23;20032;-75
2022/04/12 06:40:49;;;;;;;15.38;4.88;;;;;;;10.75;39.94;101082.84;6232752;23;20035;-75
2022/04/12 06:43:15;;;;;;;5.43;4.00;;;;;;;10.83;40.38;101087.28;6177444;23;20034;-76
2022/04/12 06:45:40;;;;;;;6.55;3.55;;;;;;;10.90;39.21;101081.22;6108227;23;20025;-73
2022/04/12 06:48:07;;;;;;;8.93;4.53;;;;;;;10.88;40.64;101088.19;6108361;23;20006;-74
2022/04/12 06:50:32;;;;;;;6.25;2.67;;;;;;;10.38;37.04;101081.56;6082537;23;20095;-75
2022/04/12 06:52:59;;;;;;;7.75;3.10;;;;;;;10.76;37.76;101088.97;6108835;23;20010;-74
2022/04/12 06:55:26;;;;;;;5.63;3.03;;;;;;;10.76;38.84;101089.84;6107607;23;20022;-74
2022/04/12 06:57:51;;;;;;;11.80;3.13;;;;;;;10.75;37.27;101098.59;6108482;23;20511;-76
2022/04/12 07:00:18;;;;;;;6.55;3.85;;;;;;;10.73;40.25;101092.44;6106551;23;20093;-74
2022/04/12 07:02:44;;;;;;;4.18;2.35;;;;;;;10.65;39.64;101091.50;6108689;23;20006;-73
2022/04/12 07:05:10;;;;;;;3.97;2.08;;;;;;;10.49;36.39;101085.19;6107894;23;20029;-73
2022/04/12 07:07:40;;;;;;;6.35;2.80;;;;;;;10.60;37.66;101095.78;6106375;23;20055;-73
2022/04/12 07:10:08;;;;;;;4.78;2.63;;;;;;;10.77;38.47;101091.63;6107988;23;20033;-73
2022/04/12 07:12:34;;;;;;;4.90;2.35;;;;;;;10.67;37.52;101087.09;6108595;23;20006;-76
2022/04/12 07:14:59;;;;;;;5.40;2.13;;;;;;;10.61;36.98;101084.44;6108533;23;20063;-74
2022/04/12 07:17:25;;;;;;;3.90;2.10;;;;;;;10.50;36.90;101094.81;6108894;23;20096;-73
2022/04/12 07:19:50;;;;;;;4.78;1.88;;;;;;;10.51;36.80;101093.06;6108757;23;20026;-73
2022/04/12 07:22:16;;;;;;;6.20;2.95;;;;;;;10.60;36.91;101085.28;6106903;23;20727;-76
2022/04/12 07:24:42;;;;;;;8.35;3.50;;;;;;;10.83;37.60;101103.03;6107831;23;20029;-75
2022/04/12 07:27:07;;;;;;;7.20;2.88;;;;;;;10.77;36.16;101093.38;6082149;23;20035;-73
2022/04/12 07:29:33;;;;;;;4.35;2.45;;;;;;;10.70;37.41;101094.13;6109331;23;20002;-74
2022/04/12 07:31:58;;;;;;;8.73;2.95;;;;;;;10.51;38.96;101086.09;6104637;23;20018;-74
2022/04/12 07:34:23;;;;;;;6.15;2.55;;;;;;;10.29;36.54;101090.19;6107606;23;20072;-74
2022/04/12 07:36:53;;;;;;;10.02;3.45;;;;;;;10.51;37.69;101093.06;6107881;23;20022;-74
2022/04/12 07:39:20;;;;;;;4.00;2.58;;;;;;;10.47;37.12;101097.41;6108749;23;20018;-74
2022/04/12 07:41:47;;;;;;;11.60;2.40;;;;;;;10.58;38.26;101092.25;6082758;23;20346;-73
2022/04/12 07:44:13;;;;;;;7.25;2.25;;;;;;;10.01;39.28;101083.69;6085202;23;20126;-76
2022/04/12 07:46:39;;;;;;;4.90;2.15;;;;;;;10.38;37.89;101094.69;6079241;23;20030;-74
2022/04/12 07:49:04;;;;;;;5.35;2.35;;;;;;;10.53;38.36;101102.69;6079468;23;20037;-73
2022/04/12 07:51:30;;;;;;;4.32;2.75;;;;;;;10.51;36.98;101090.44;6079113;23;20019;-74
2022/04/12 07:53:55;;;;;;;15.77;2.10;;;;;;;10.52;35.32;101086.97;6079157;23;20435;-74
2022/04/12 07:56:21;;;;;;;6.20;2.45;;;;;;;10.66;35.98;101095.00;6079752;23;20340;-74
2022/04/12 07:58:46;;;;;;;3.88;1.80;;;;;;;10.54;36.48;101106.25;6078216;23;20684;-74
2022/04/12 08:01:12;;;;;;;21.27;6.82;;;;;;;10.67;37.53;101102.84;6076632;23;20023;-73
2022/04/12 08:03:39;;;;;;;5.60;2.92;;;;;;;10.69;36.10;101090.63;6079011;23;20014;-74
2022/04/12 08:06:05;;;;;;;3.92;2.40;;;;;;;10.87;35.73;101099.59;6078579;23;20089;-75
2022/04/12 08:08:32;;;;;;;2.60;1.55;;;;;;;10.67;35.56;101096.75;6079588;23;20054;-73
2022/04/12 08:10:58;;;;;;;2.92;1.58;;;;;;;10.81;34.57;101089.00;6078963;23;20502;-73
2022/04/12 08:13:24;;;;;;;2.30;1.70;;;;;;;10.79;34.35;101081.09;6078584;23;20032;-74
2022/04/12 08:15:49;;;;;;;8.40;1.83;;;;;;;10.72;36.44;101081.91;6079109;23;20038;-76
2022/04/12 08:18:15;;;;;;;7.32;1.55;;;;;;;10.96;36.00;101076.91;6078515;23;20433;-73
2022/04/12 08:20:47;;;;;;;5.55;2.35;;;;;;;11.13;36.17;101077.06;6080064;23;20373;-76
2022/04/12 08:23:12;;;;;;;16.05;2.00;;;;;;;11.36;35.12;101069.34;6077974;23;20089;-76
2022/04/12 08:25:38;;;;;;;3.85;1.52;;;;;;;11.39;35.19;101069.38;6079454;23;20026;-75
2022/04/12 08:28:04;;;;;;;3.25;1.67;;;;;;;10.76;37.22;101073.22;6078418;23;20719;-75
2022/04/12 08:30:29;;;;;;;15.02;2.53;;;;;;;11.00;36.57;101056.78;6079241;23;20887;-74
2022/04/12 08:32:55;;;;;;;3.40;2.10;;;;;;;10.65;37.35;101060.00;6078991;23;20003;-74
2022/04/12 08:35:21;;;;;;;3.63;1.95;;;;;;;10.91;37.47;101067.22;6079185;23;20722;-74
2022/04/12 08:37:46;;;;;;;7.60;2.80;;;;;;;11.05;36.45;101073.50;6052885;23;20060;-74
2022/04/12 08:40:13;;;;;;;4.03;2.13;;;;;;;11.11;36.51;101063.03;6078834;23;20057;-73
2022/04/12 08:42:40;;;;;;;4.63;2.53;;;;;;;11.15;36.50;101069.19;6078504;23;20487;-74
2022/04/12 08:45:07;;;;;;;6.70;2.15;;;;;;;11.31;35.92;101064.94;6078920;23;20033;-73
2022/04/12 08:47:36;;;;;;;4.15;1.90;;;;;;;11.26;39.25;101046.53;6079554;23;20011;-73
2022/04/12 08:50:03;;;;;;;5.30;2.03;;;;;;;11.44;35.80;101058.88;6077974;23;20430;-74
2022/04/12 08:52:30;;;;;;;5.30;1.63;;;;;;;11.33;35.99;101060.56;6077356;23;20111;-74
2022/04/12 08:54:55;;;;;;;5.97;2.80;;;;;;;11.40;35.65;101046.59;6078617;23;20076;-73
2022/04/12 08:57:21;;;;;;;3.13;1.65;;;;;;;11.66;36.11;101046.78;6078129;23;20121;-76
2022/04/12 08:59:48;;;;;;;3.05;1.90;;;;;;;11.66;37.27;101053.75;6078916;23;20399;-74
2022/04/12 09:02:13;;;;;;;4.93;1.90;;;;;;;11.62;35.76;101038.00;6076897;23;20018;-74
2022/04/12 09:04:39;;;;;;;4.80;2.28;;;;;;;11.38;35.84;101046.59;6078401;23;20030;-75
2022/04/12 09:07:09;;;;;;;6.63;2.25;;;;;;;11.61;34.13;101049.38;6078599;23;20098;-73
2022/04/12 09:09:36;;;;;;;2.92;1.45;;;;;;;11.61;33.98;101041.50;6077525;23;20402;-74
2022/04/12 09:12:10;;;;;;;2.85;1.33;;;;;;;11.69;33.68;101041.53;6078693;23;20016;-73
2022/04/12 09:14:37;;;;;;;7.70;4.70;;;;;;;11.36;35.57;101031.69;6079083;23;20354;-75
2022/04/12 09:17:07;;;;;;;5.65;2.38;;;;;;;11.42;33.70;101036.97;6078792;23;20038;-74
2022/04/12 09:19:47;;;;;;;4.05;2.00;;;;;;;11.70;34.61;101034.53;6078347;23;20026;-73
2022/04/12 09:22:16;;;;;;;4.28;2.10;;;;;;;11.88;34.09;101025.88;6078362;23;20046;-74
2022/04/12 09:24:58;;;;;;;5.22;2.20;;;;;;;11.90;34.56;101030.28;6077777;23;20092;-74
2022/04/12 09:27:26;;;;;;;4.03;1.95;;;;;;;11.85;33.43;101029.34;6078799;23;20356;-76
2022/04/12 09:30:02;;;;;;;4.03;2.08;;;;;;;11.95;33.25;101012.75;6078374;23;20089;-75
2022/04/12 09:32:36;;;;;;;3.58;2.08;;;;;;;12.25;33.24;101014.63;6080059;23;20108;-74
2022/04/12 09:35:01;;;;;;;3.63;1.85;;;;;;;11.98;34.90;101012.75;6078482;23;20030;-75
2022/04/12 09:37:37;;;;;;;3.35;1.65;;;;;;;12.23;34.72;101020.75;6078558;23;20033;-74
2022/04/12 09:40:13;;;;;;;3.22;1.70;;;;;;;12.70;35.29;101012.06;6078258;23;20034;-76
2022/04/12 09:42:50;;;;;;;4.53;2.00;;;;;;;12.74;32.71;101015.59;6079629;22;20817;-74
2022/04/12 09:45:22;;;;;;;7.25;2.60;;;;;;;12.79;32.83;101011.22;6078014;23;20976;-74
2022/04/12 09:47:50;;;;;;;3.40;2.05;;;;;;;12.60;32.40;101012.94;6078892;23;20376;-74
2022/04/12 09:50:16;;;;;;;3.10;1.63;;;;;;;12.47;32.29;100993.59;6078185;23;20034;-76
2022/04/12 09:52:54;;;;;;;3.80;1.50;;;;;;;12.30;35.44;101019.03;6078534;23;20015;-76
2022/04/12 09:55:42;;;;;;;7.60;2.80;;;;;;;11.93;36.35;101016.25;6076810;23;20015;-74
2022/04/12 09:58:10;;;;;;;6.28;3.47;;;;;;;11.48;36.66;101005.50;6078185;23;20022;-75
2022/04/12 10:00:36;;;;;;;4.50;1.80;;;;;;;11.64;35.40;101019.59;6076523;23;20093;-75
2022/04/12 10:03:06;;;;;;;2.92;1.65;;;;;;;11.91;34.98;101018.88;6052771;23;20548;-73
2022/04/12 10:05:33;;;;;;;6.55;2.75;;;;;;;12.27;33.13;101013.72;6078906;23;20017;-75
2022/04/12 10:08:01;;;;;;;12.55;2.17;;;;;;;12.71;35.30;100999.78;6079220;23;20336;-74
2022/04/12 10:10:27;;;;;;;5.72;2.33;;;;;;;12.99;35.41;101003.28;6053968;23;20401;-75
2022/04/12 10:12:54;;;;;;;10.18;2.42;;;;;;;13.63;33.89;101005.00;6079612;23;20397;-73
2022/04/12 10:15:21;;;;;;;5.03;2.97;;;;;;;13.55;33.08;100996.22;6078982;23;20169;-74
2022/04/12 10:17:47;;;;;;;7.47;2.78;;;;;;;13.81;32.87;100993.47;6079175;23;20050;-75
2022/04/12 10:20:15;;;;;;;6.15;2.03;;;;;;;13.54;32.67;100997.97;6078193;23;20029;-74
2022/04/12 10:22:42;;;;;;;5.15;1.73;;;;;;;13.13;31.94;100988.34;6079520;23;20530;-74
2022/04/12 10:25:10;;;;;;;4.05;1.77;;;;;;;12.49;31.14;100985.72;6079144;23;20085;-75
2022/04/12 10:27:37;;;;;;;3.88;2.00;;;;;;;12.61;29.11;100993.63;6054407;23;20011;-73
2022/04/12 10:30:21;;;;;;;5.30;1.52;;;;;;;13.89;30.41;101002.25;6079414;23;20042;-74
2022/04/12 10:33:17;;;;;;;2.97;1.60;;;;;;;13.98;31.75;100991.66;6054203;23;20021;-75
2022/04/12 10:35:42;;;;;;;8.13;1.50;;;;;;;13.33;31.14;100991.00;6079301;23;20026;-75
2022/04/12 10:38:09;;;;;;;3.72;1.40;;;;;;;12.70;29.88;100985.75;6079561;23;20021;-75
2022/04/12 10:40:35;;;;;;;2.28;0.95;;;;;;;12.61;29.74;100999.75;6079685;23;20022;-74
2022/04/12 10:43:04;;;;;;;5.95;1.73;;;;;;;13.27;31.12;101001.50;6053568;23;20031;-74
2022/04/12 10:45:33;;;;;;;3.15;1.42;;;;;;;14.22;31.62;100982.72;6079014;23;20176;-74
2022/04/12 10:48:01;;;;;;;4.72;1.15;;;;;;;14.63;29.31;100970.16;6077656;23;20033;-74
2022/04/12 10:50:27;;;;;;;5.47;1.65;;;;;;;14.25;29.23;100979.19;6079673;23;20037;-76
2022/04/12 10:52:53;;;;;;;4.93;1.75;;;;;;;14.49;28.01;100984.34;6079264;23;20435;-75
2022/04/12 10:55:25;;;;;;;4.65;1.92;;;;;;;12.57;31.23;100973.44;6078313;23;20021;-73
2022/04/12 10:57:52;;;;;;;2.30;1.23;;;;;;;12.61;31.72;100978.69;6078731;23;20646;-74
2022/04/12 11:00:22;;;;;;;4.18;1.55;;;;;;;12.80;30.16;100976.94;6076735;23;20021;-74
2022/04/12 11:02:56;;;;;;;4.88;1.70;;;;;;;12.98;30.17;100983.97;6080002;23;20006;-74
2022/04/12 11:05:37;;;;;;;7.28;1.50;;;;;;;13.40;30.51;100979.56;6078792;23;20018;-74
2022/04/12 11:08:08;;;;;;;3.53;1.65;;;;;;;13.27;30.33;100986.63;6079086;23;20038;-74
2022/04/12 11:10:33;;;;;;;2.45;1.25;;;;;;;13.48;32.22;100983.03;6079127;23;20057;-75
2022/04/12 11:13:11;;;;;;;2.95;1.42;;;;;;;13.59;29.39;100990.94;6079035;23;20778;-73
2022/04/12 11:15:38;;;;;;;5.05;1.35;;;;;;;13.72;27.93;100984.75;6052421;23;20548;-75
2022/04/12 11:18:11;;;;;;;3.13;1.35;;;;;;;14.31;30.27;100980.03;6078831;23;20010;-77
2022/04/12 11:20:38;;;;;;;5.32;2.25;;;;;;;13.64;30.24;100978.59;6080148;23;20021;-73
2022/04/12 11:23:11;;;;;;;4.00;1.88;;;;;;;13.75;28.96;100961.88;6078746;23;20041;-74
2022/04/12 11:25:47;;;;;;;9.07;1.65;;;;;;;14.06;30.02;100975.78;6052582;23;20501;-74
2022/04/12 11:28:15;;;;;;;5.72;1.70;;;;;;;13.33;30.56;100971.69;6078796;23;20021;-73